createdAt,value
2022-11-27T00:01:35.633Z,6.63
2022-11-27T00:04:02.827Z,7.77
2022-11-27T00:06:30.861Z,6.70
2022-11-27T00:08:59.217Z,6.67
2022-11-27T00:11:27.957Z,6.30
2022-11-27T00:13:55.464Z,7.80
2022-11-27T00:16:23.623Z,7.33
2022-11-27T00:18:51.031Z,8.50
2022-11-27T00:21:22.503Z,6.43
2022-11-27T00:23:50.097Z,6.33
2022-11-27T00:26:17.121Z,7.57
2022-11-27T00:28:44.180Z,7.10
2022-11-27T00:31:20.052Z,6.50
2022-11-27T00:33:50.199Z,7.30
2022-11-27T00:36:17.013Z,7.20
2022-11-27T00:38:44.435Z,7.87
2022-11-27T00:41:25.278Z,6.90
2022-11-27T00:43:53.914Z,6.20
2022-11-27T00:46:28.837Z,5.57
2022-11-27T00:49:00.109Z,5.53
2022-11-27T00:51:27.532Z,5.60
2022-11-27T00:53:55.032Z,6.70
2022-11-27T00:56:27.457Z,6.30
2022-11-27T00:58:54.938Z,5.93
2022-11-27T01:01:34.869Z,6.40
2022-11-27T01:04:03.385Z,6.03
2022-11-27T01:06:30.846Z,6.60
2022-11-27T01:08:58.473Z,6.33
2022-11-27T01:11:28.000Z,6.47
2022-11-27T01:13:58.233Z,6.03
2022-11-27T01:16:27.561Z,5.07
2022-11-27T01:18:57.692Z,5.63
2022-11-27T01:21:25.683Z,5.87
2022-11-27T01:23:54.504Z,5.50
2022-11-27T01:26:21.999Z,5.70
2022-11-27T01:28:52.117Z,5.50
2022-11-27T01:31:21.895Z,5.43
2022-11-27T01:33:53.368Z,5.20
2022-11-27T01:36:20.269Z,5.90
2022-11-27T01:38:47.055Z,5.40
2022-11-27T01:41:18.378Z,6.40
2022-11-27T01:43:55.517Z,5.20
2022-11-27T01:46:46.476Z,6.10
2022-11-27T01:49:19.264Z,6.10
2022-11-27T01:52:12.431Z,5.70
2022-11-27T01:54:56.413Z,6.13
2022-11-27T01:57:28.755Z,5.53
2022-11-27T01:59:58.172Z,5.57
2022-11-27T02:02:25.148Z,6.17
2022-11-27T02:04:53.603Z,6.13
2022-11-27T02:07:20.956Z,6.90
2022-11-27T02:09:48.094Z,6.17
2022-11-27T02:12:25.184Z,5.97
2022-11-27T02:15:19.094Z,7.00
2022-11-27T02:18:10.806Z,5.83
2022-11-27T02:20:55.262Z,6.80
2022-11-27T02:23:49.507Z,5.77
2022-11-27T02:26:34.702Z,5.83
2022-11-27T02:29:06.344Z,5.40
2022-11-27T02:31:54.137Z,5.40
2022-11-27T02:34:45.776Z,5.57
2022-11-27T02:37:27.407Z,5.80
2022-11-27T02:40:04.136Z,4.80
2022-11-27T02:42:43.851Z,4.43
2022-11-27T02:45:14.793Z,4.10
2022-11-27T02:47:45.643Z,5.63
2022-11-27T02:50:20.084Z,4.20
2022-11-27T02:52:49.142Z,5.30
2022-11-27T02:55:19.854Z,4.97
2022-11-27T02:57:47.816Z,5.23
2022-11-27T03:00:15.101Z,5.53
2022-11-27T03:02:50.905Z,4.33
2022-11-27T03:05:20.742Z,4.90
2022-11-27T03:08:01.513Z,4.10
2022-11-27T03:10:37.542Z,4.97
2022-11-27T03:13:04.361Z,4.47
2022-11-27T03:16:02.327Z,4.50
2022-11-27T03:18:39.704Z,5.57
2022-11-27T03:21:29.585Z,5.90
2022-11-27T03:23:57.905Z,4.87
2022-11-27T03:26:25.735Z,4.77
2022-11-27T03:28:54.533Z,6.70
2022-11-27T03:31:23.849Z,4.80
2022-11-27T03:33:51.275Z,4.80
2022-11-27T03:36:20.145Z,5.30
2022-11-27T03:38:48.494Z,5.67
2022-11-27T03:41:48.078Z,5.80
2022-11-27T03:44:25.486Z,5.70
2022-11-27T03:47:13.821Z,5.40
2022-11-27T03:50:26.695Z,5.10
2022-11-27T03:52:59.305Z,5.00
2022-11-27T03:55:49.971Z,5.43
2022-11-27T03:58:27.062Z,6.10
2022-11-27T04:00:54.826Z,4.80
2022-11-27T04:03:25.655Z,5.90
2022-11-27T04:05:52.600Z,5.40
2022-11-27T04:08:22.490Z,6.40
2022-11-27T04:10:49.267Z,6.13
2022-11-27T04:13:16.851Z,6.57
2022-11-27T04:15:44.066Z,6.23
2022-11-27T04:18:10.903Z,6.60
2022-11-27T04:20:37.608Z,6.10
2022-11-27T04:23:04.408Z,7.43
2022-11-27T04:25:31.150Z,6.03
2022-11-27T04:27:57.890Z,6.37
2022-11-27T04:30:24.892Z,5.77
2022-11-27T04:32:51.650Z,5.70
2022-11-27T04:35:18.392Z,5.13
2022-11-27T04:37:45.198Z,5.90
2022-11-27T04:40:12.796Z,6.80
2022-11-27T04:42:39.566Z,6.30
2022-11-27T04:45:06.840Z,5.37
2022-11-27T04:47:33.596Z,5.83
2022-11-27T04:50:00.361Z,6.17
2022-11-27T04:52:27.596Z,5.90
2022-11-27T04:54:59.768Z,5.93
2022-11-27T04:57:27.289Z,5.87
2022-11-27T04:59:54.105Z,6.60
2022-11-27T05:02:20.881Z,6.60
2022-11-27T05:04:47.587Z,6.70
2022-11-27T05:07:14.376Z,6.60
2022-11-27T05:09:41.170Z,7.30
2022-11-27T05:12:08.113Z,6.73
2022-11-27T05:14:34.929Z,6.40
2022-11-27T05:17:01.737Z,5.93
2022-11-27T05:19:30.288Z,5.67
2022-11-27T05:21:57.381Z,6.03
2022-11-27T05:24:26.487Z,7.30
2022-11-27T05:26:53.257Z,6.30
2022-11-27T05:29:20.011Z,6.30
2022-11-27T05:31:47.206Z,6.57
2022-11-27T05:34:14.971Z,6.47
2022-11-27T05:36:42.519Z,6.53
2022-11-27T05:39:10.446Z,6.10
2022-11-27T05:41:39.362Z,7.67
2022-11-27T05:44:06.499Z,6.80
2022-11-27T05:46:33.569Z,6.37
2022-11-27T05:49:00.503Z,6.33
2022-11-27T05:51:27.238Z,5.63
2022-11-27T05:53:54.015Z,5.97
2022-11-27T05:56:20.786Z,6.47
2022-11-27T05:58:48.373Z,6.37
2022-11-27T06:01:18.105Z,5.50
2022-11-27T06:03:45.143Z,5.63
2022-11-27T06:06:15.574Z,5.70
2022-11-27T06:08:42.842Z,6.40
2022-11-27T06:13:35.784Z,6.33
2022-11-27T06:16:07.378Z,7.10
2022-11-27T06:18:34.302Z,6.10
2022-11-27T06:21:01.034Z,6.10
2022-11-27T06:23:27.785Z,6.37
2022-11-27T06:25:54.489Z,5.93
2022-11-27T06:28:21.196Z,6.53
2022-11-27T06:30:47.909Z,6.50
2022-11-27T06:33:14.599Z,6.60
2022-11-27T06:35:41.348Z,6.23
2022-11-27T06:38:08.066Z,6.87
2022-11-27T06:40:34.795Z,6.70
2022-11-27T06:43:01.512Z,7.10
2022-11-27T06:45:28.302Z,7.73
2022-11-27T06:47:55.040Z,7.30
2022-11-27T06:50:21.745Z,6.37
2022-11-27T06:52:48.491Z,6.73
2022-11-27T06:55:15.265Z,6.60
2022-11-27T06:57:42.046Z,7.10
2022-11-27T07:00:09.247Z,6.70
2022-11-27T07:02:36.077Z,7.40
2022-11-27T07:05:02.894Z,6.70
2022-11-27T07:07:29.639Z,7.07
2022-11-27T07:09:56.413Z,7.40
2022-11-27T07:12:23.172Z,7.00
2022-11-27T07:14:49.893Z,6.53
2022-11-27T07:17:16.635Z,6.63
2022-11-27T07:19:43.497Z,7.23
2022-11-27T07:22:10.286Z,6.70
2022-11-27T07:24:37.199Z,6.50
2022-11-27T07:27:03.926Z,5.97
2022-11-27T07:29:30.654Z,7.10
2022-11-27T07:31:57.411Z,7.73
2022-11-27T07:34:24.191Z,7.47
2022-11-27T07:36:50.909Z,7.17
2022-11-27T07:39:28.720Z,7.97
2022-11-27T07:42:36.952Z,7.57
2022-11-27T07:44:51.264Z,6.87
2022-11-27T07:47:17.962Z,7.60
2022-11-27T07:49:44.688Z,8.10
2022-11-27T07:52:11.402Z,7.27
2022-11-27T07:54:39.706Z,6.27
2022-11-27T07:57:06.611Z,8.00
2022-11-27T07:59:33.314Z,8.40
2022-11-27T08:02:00.115Z,8.37
2022-11-27T08:04:27.468Z,7.43
2022-11-27T08:06:54.266Z,7.13
2022-11-27T08:09:21.126Z,6.97
2022-11-27T08:11:47.891Z,7.73
2022-11-27T08:14:15.175Z,7.53
2022-11-27T08:16:42.070Z,8.50
2022-11-27T08:19:10.517Z,7.23
2022-11-27T08:21:37.334Z,6.87
2022-11-27T08:24:04.573Z,8.17
2022-11-27T08:26:31.427Z,7.17
2022-11-27T08:28:58.432Z,6.80
2022-11-27T08:31:25.475Z,7.53
2022-11-27T08:33:52.267Z,8.20
2022-11-27T08:36:19.057Z,7.83
2022-11-27T08:38:46.622Z,7.30
2022-11-27T08:41:13.553Z,7.27
2022-11-27T08:43:40.348Z,6.37
2022-11-27T08:46:08.011Z,6.37
2022-11-27T08:48:35.347Z,6.33
2022-11-27T08:51:13.581Z,7.80
2022-11-27T08:53:40.811Z,7.97
2022-11-27T08:56:09.623Z,8.10
2022-11-27T08:58:36.542Z,7.37
2022-11-27T09:01:21.510Z,7.23
2022-11-27T09:03:48.753Z,6.80
2022-11-27T09:06:18.822Z,7.73
2022-11-27T09:08:46.091Z,7.63
2022-11-27T09:11:14.488Z,8.20
2022-11-27T09:13:42.030Z,6.90
2022-11-27T09:16:11.971Z,7.60
2022-11-27T09:18:39.135Z,6.93
2022-11-27T09:21:08.208Z,7.90
2022-11-27T09:23:35.538Z,7.10
2022-11-27T09:26:04.319Z,7.57
2022-11-27T09:28:32.143Z,7.17
2022-11-27T09:31:02.246Z,7.70
2022-11-27T09:33:30.893Z,7.13
2022-11-27T09:35:57.929Z,6.60
2022-11-27T09:38:24.866Z,7.50
2022-11-27T09:40:53.750Z,6.60
2022-11-27T09:43:29.273Z,7.13
2022-11-27T09:46:04.037Z,7.23
2022-11-27T09:48:38.248Z,6.70
2022-11-27T09:51:12.286Z,6.40
2022-11-27T09:53:38.958Z,7.27
2022-11-27T09:56:12.156Z,7.10
2022-11-27T09:58:40.020Z,9.87
2022-11-27T10:01:16.386Z,7.10
2022-11-27T10:03:45.524Z,7.40
2022-11-27T10:06:15.822Z,7.13
2022-11-27T10:08:52.072Z,6.70
2022-11-27T10:11:33.028Z,7.07
2022-11-27T10:14:40.598Z,6.43
2022-11-27T10:17:29.588Z,6.33
2022-11-27T10:20:14.116Z,6.07
2022-11-27T10:23:00.271Z,6.13
2022-11-27T10:25:42.005Z,6.00
2022-11-27T10:28:38.666Z,6.30
2022-11-27T10:31:14.798Z,5.90
2022-11-27T10:33:55.907Z,6.10
2022-11-27T10:36:34.269Z,5.93
2022-11-27T10:39:02.642Z,5.40
2022-11-27T10:41:51.373Z,6.00
2022-11-27T10:44:44.103Z,5.70
2022-11-27T10:47:13.664Z,5.57
2022-11-27T10:49:42.092Z,4.90
2022-11-27T10:52:18.282Z,5.00
2022-11-27T10:54:54.603Z,5.10
2022-11-27T10:57:37.239Z,5.30
2022-11-27T11:00:10.137Z,5.50
2022-11-27T11:02:39.253Z,5.50
2022-11-27T11:05:34.980Z,4.73
2022-11-27T11:08:14.681Z,5.10
2022-11-27T11:13:41.904Z,6.13
2022-11-27T11:16:14.641Z,5.20
2022-11-27T11:18:50.276Z,5.60
2022-11-27T11:21:30.081Z,5.40
2022-11-27T11:24:01.621Z,8.53
2022-11-27T11:26:29.860Z,4.77
2022-11-27T11:28:59.917Z,5.57
2022-11-27T11:31:38.861Z,5.80
2022-11-27T11:34:22.396Z,5.43
2022-11-27T11:37:07.673Z,5.03
2022-11-27T11:39:45.454Z,5.93
2022-11-27T11:42:24.059Z,5.53
2022-11-27T11:44:56.387Z,5.70
2022-11-27T11:47:25.229Z,5.80
2022-11-27T11:49:53.882Z,5.70
2022-11-27T11:52:47.242Z,6.27
2022-11-27T11:55:20.015Z,6.20
2022-11-27T11:58:29.425Z,5.30
2022-11-27T12:01:27.506Z,6.83
2022-11-27T12:03:57.615Z,4.83
2022-11-27T12:06:44.645Z,4.87
2022-11-27T12:09:43.823Z,5.20
2022-11-27T12:12:51.960Z,5.30
2022-11-27T12:15:36.720Z,5.70
2022-11-27T12:18:09.302Z,5.80
2022-11-27T12:21:07.902Z,6.70
2022-11-27T12:23:53.473Z,5.87
2022-11-27T12:26:49.436Z,6.50
2022-11-27T12:29:37.769Z,6.00
2022-11-27T12:32:19.628Z,5.00
2022-11-27T12:35:31.369Z,4.93
2022-11-27T12:38:15.697Z,6.30
2022-11-27T12:41:10.578Z,5.73
2022-11-27T12:43:47.992Z,5.40
2022-11-27T12:47:00.970Z,5.53
2022-11-27T12:49:34.216Z,5.13
2022-11-27T12:52:40.756Z,5.13
2022-11-27T12:55:15.348Z,4.70
2022-11-27T12:57:52.714Z,5.30
2022-11-27T13:00:25.349Z,5.30
2022-11-27T13:03:25.930Z,6.00
2022-11-27T13:05:58.203Z,4.37
2022-11-27T13:08:38.858Z,4.30
2022-11-27T13:14:00.757Z,5.47
2022-11-27T13:16:34.390Z,6.27
2022-11-27T13:19:23.859Z,5.00
2022-11-27T13:21:52.995Z,5.87
2022-11-27T13:24:21.198Z,4.43
2022-11-27T13:27:01.514Z,6.00
2022-11-27T13:29:48.295Z,5.37
2022-11-27T13:32:25.097Z,5.60
2022-11-27T13:34:53.180Z,4.93
2022-11-27T13:37:31.503Z,5.70
2022-11-27T13:40:06.209Z,4.70
2022-11-27T13:42:41.475Z,5.60
2022-11-27T13:45:18.806Z,5.90
2022-11-27T13:47:45.745Z,4.73
2022-11-27T13:50:20.351Z,5.50
2022-11-27T13:53:04.310Z,5.20
2022-11-27T13:55:40.125Z,5.33
2022-11-27T13:58:08.310Z,5.53
2022-11-27T14:00:44.085Z,4.20
2022-11-27T14:03:30.684Z,5.27
2022-11-27T14:05:57.858Z,5.47
2022-11-27T14:08:28.673Z,4.67
2022-11-27T14:13:42.136Z,5.10
2022-11-27T14:16:28.188Z,5.50
2022-11-27T14:18:58.327Z,5.90
2022-11-27T14:21:51.454Z,5.57
2022-11-27T14:24:45.974Z,5.70
2022-11-27T14:27:24.895Z,5.50
2022-11-27T14:29:52.626Z,5.70
2022-11-27T14:32:21.184Z,5.30
2022-11-27T14:34:48.850Z,6.30
2022-11-27T14:37:27.634Z,5.70
2022-11-27T14:39:55.231Z,5.10
2022-11-27T14:42:30.624Z,6.10
2022-11-27T14:45:04.477Z,6.83
2022-11-27T14:47:32.091Z,6.80
2022-11-27T14:49:59.443Z,6.10
2022-11-27T14:52:27.376Z,5.30
2022-11-27T14:54:55.682Z,5.37
2022-11-27T14:57:27.675Z,6.43
2022-11-27T15:00:14.932Z,4.67
2022-11-27T15:02:41.870Z,6.10
2022-11-27T15:05:21.926Z,6.80
2022-11-27T15:07:51.124Z,6.10
2022-11-27T15:10:23.171Z,5.23
2022-11-27T15:12:50.202Z,6.57
2022-11-27T15:15:27.495Z,6.03
2022-11-27T15:18:00.477Z,5.27
2022-11-27T15:20:34.986Z,5.23
2022-11-27T15:23:02.067Z,5.07
2022-11-27T15:25:41.559Z,5.50
2022-11-27T15:28:23.625Z,6.33
2022-11-27T15:30:51.028Z,5.87
2022-11-27T15:33:32.655Z,5.30
2022-11-27T15:36:17.793Z,6.00
2022-11-27T15:38:45.800Z,5.43
2022-11-27T15:41:23.211Z,6.00
2022-11-27T15:43:49.993Z,6.10
2022-11-27T15:46:30.215Z,5.23
2022-11-27T15:48:57.206Z,5.93
2022-11-27T15:51:24.151Z,6.60
2022-11-27T15:53:51.026Z,6.17
2022-11-27T15:56:18.242Z,6.93
2022-11-27T15:58:45.062Z,5.40
2022-11-27T16:01:12.308Z,5.03
2022-11-27T16:03:40.055Z,5.30
2022-11-27T16:06:08.680Z,5.47
2022-11-27T16:08:36.127Z,5.33
2022-11-27T16:13:34.960Z,5.90
2022-11-27T16:16:03.933Z,5.37
2022-11-27T16:18:32.843Z,5.20
2022-11-27T16:21:04.590Z,5.30
2022-11-27T16:23:32.017Z,5.30
2022-11-27T16:25:59.470Z,4.10
2022-11-27T16:28:26.979Z,4.40
2022-11-27T16:30:54.754Z,3.90
2022-11-27T16:33:21.589Z,4.83
2022-11-27T16:35:48.441Z,4.80
2022-11-27T16:38:15.198Z,5.73
2022-11-27T16:40:41.972Z,5.10
2022-11-27T16:43:08.871Z,4.20
2022-11-27T16:45:36.898Z,4.30
2022-11-27T16:48:04.465Z,3.83
2022-11-27T16:50:31.429Z,4.30
2022-11-27T16:52:58.408Z,8.40
2022-11-27T16:55:25.753Z,3.80
2022-11-27T16:57:52.489Z,3.97
2022-11-27T17:00:19.648Z,3.63
2022-11-27T17:02:46.474Z,3.60
2022-11-27T17:05:13.247Z,2.80
2022-11-27T17:07:40.444Z,3.17
2022-11-27T17:10:08.035Z,3.63
2022-11-27T17:12:34.792Z,3.70
2022-11-27T17:15:01.602Z,3.70
2022-11-27T17:17:28.400Z,4.43
2022-11-27T17:20:00.520Z,7.23
2022-11-27T17:22:28.419Z,3.93
2022-11-27T17:24:57.617Z,3.53
2022-11-27T17:27:24.534Z,3.10
2022-11-27T17:29:51.298Z,3.77
2022-11-27T17:32:18.334Z,4.37
2022-11-27T17:34:45.548Z,4.20
2022-11-27T17:37:13.422Z,4.37
2022-11-27T17:39:41.414Z,3.50
2022-11-27T17:42:12.904Z,4.03
2022-11-27T17:44:41.298Z,5.00
2022-11-27T17:47:08.005Z,4.60
2022-11-27T17:49:34.731Z,5.00
2022-11-27T17:52:06.216Z,4.23
2022-11-27T17:54:34.130Z,4.33
2022-11-27T17:57:00.950Z,5.27
2022-11-27T17:59:27.809Z,4.93
2022-11-27T18:01:54.558Z,5.97
2022-11-27T18:04:21.578Z,4.67
2022-11-27T18:06:48.345Z,4.80
2022-11-27T18:09:15.177Z,4.20
2022-11-27T18:11:42.011Z,4.27
2022-11-27T18:14:11.305Z,3.90
2022-11-27T18:16:38.593Z,3.93
2022-11-27T18:19:11.321Z,3.90
2022-11-27T18:21:39.061Z,4.03
2022-11-27T18:24:23.993Z,4.63
2022-11-27T18:27:07.837Z,3.60
2022-11-27T18:29:41.380Z,4.57
2022-11-27T18:32:09.057Z,4.00
2022-11-27T18:34:35.978Z,4.77
2022-11-27T18:37:03.748Z,5.27
2022-11-27T18:39:31.538Z,4.67
2022-11-27T18:41:58.442Z,6.10
2022-11-27T18:44:25.370Z,5.90
2022-11-27T18:46:52.349Z,6.03
2022-11-27T18:49:19.122Z,5.50
2022-11-27T18:51:45.935Z,5.87
2022-11-27T18:54:12.713Z,5.13
2022-11-27T18:56:39.467Z,5.03
2022-11-27T18:59:07.073Z,5.57
2022-11-27T19:01:41.366Z,5.73
2022-11-27T19:04:10.373Z,5.30
2022-11-27T19:06:38.197Z,5.50
2022-11-27T19:09:06.260Z,4.80
2022-11-27T19:11:34.064Z,5.20
2022-11-27T19:14:01.814Z,5.73
2022-11-27T19:16:43.934Z,6.40
2022-11-27T19:19:43.986Z,6.37
2022-11-27T19:21:58.679Z,4.70
2022-11-27T19:24:25.465Z,6.13
2022-11-27T19:26:52.276Z,6.67
2022-11-27T19:29:19.027Z,5.13
2022-11-27T19:31:45.875Z,5.40
2022-11-27T19:34:13.645Z,5.40
2022-11-27T19:36:40.922Z,6.13
2022-11-27T19:39:14.157Z,5.33
2022-11-27T19:41:42.698Z,5.67
2022-11-27T19:44:12.653Z,6.10
2022-11-27T19:46:40.471Z,5.60
2022-11-27T19:49:12.271Z,6.00
2022-11-27T19:51:40.525Z,6.23
2022-11-27T19:54:10.214Z,7.07
2022-11-27T19:56:39.975Z,6.30
2022-11-27T19:59:08.474Z,6.37
2022-11-27T20:01:35.940Z,6.33
2022-11-27T20:04:03.966Z,6.67
2022-11-27T20:06:30.760Z,6.97
2022-11-27T20:09:02.128Z,6.83
2022-11-27T20:11:34.644Z,6.80
2022-11-27T20:14:04.169Z,6.13
2022-11-27T20:16:31.422Z,6.43
2022-11-27T20:18:58.395Z,6.23
2022-11-27T20:21:26.256Z,6.17
2022-11-27T20:23:54.769Z,6.27
2022-11-27T20:26:25.062Z,5.87
2022-11-27T20:28:53.563Z,6.63
2022-11-27T20:31:26.054Z,7.30
2022-11-27T20:33:55.328Z,6.43
2022-11-27T20:36:23.075Z,6.20
2022-11-27T20:38:50.708Z,6.17
2022-11-27T20:41:19.307Z,6.87
2022-11-27T20:43:46.180Z,5.77
2022-11-27T20:46:14.682Z,6.77
2022-11-27T20:48:41.842Z,7.53
2022-11-27T20:51:13.694Z,6.83
2022-11-27T20:53:41.027Z,6.73
2022-11-27T20:56:09.497Z,6.97
2022-11-27T20:58:38.070Z,6.23
2022-11-27T21:01:19.918Z,7.07
2022-11-27T21:03:48.505Z,7.37
2022-11-27T21:06:17.502Z,7.40
2022-11-27T21:08:44.835Z,6.37
2022-11-27T21:11:25.171Z,7.03
2022-11-27T21:14:00.976Z,7.23
2022-11-27T21:16:30.491Z,7.23
2022-11-27T21:18:59.331Z,5.50
2022-11-27T21:21:26.548Z,5.93
2022-11-27T21:23:54.457Z,5.77
2022-11-27T21:26:22.066Z,5.73
2022-11-27T21:28:50.288Z,5.50
2022-11-27T21:31:20.191Z,5.50
2022-11-27T21:33:49.196Z,4.93
2022-11-27T21:36:16.545Z,5.10
2022-11-27T21:38:43.490Z,5.23
2022-11-27T21:41:14.015Z,5.17
2022-11-27T21:43:41.583Z,4.70
2022-11-27T21:46:10.365Z,5.03
2022-11-27T21:48:37.127Z,5.93
2022-11-27T21:51:07.869Z,5.23
2022-11-27T21:53:34.629Z,5.60
2022-11-27T21:56:04.754Z,5.57
2022-11-27T21:58:34.250Z,5.67
2022-11-27T22:01:01.858Z,4.83
2022-11-27T22:03:28.997Z,5.17
2022-11-27T22:06:01.665Z,5.37
2022-11-27T22:08:29.649Z,5.50
2022-11-27T22:13:24.830Z,5.40
2022-11-27T22:15:51.654Z,6.03
2022-11-27T22:18:18.479Z,4.80
2022-11-27T22:20:45.654Z,5.50
2022-11-27T22:23:12.343Z,5.27
2022-11-27T22:25:39.104Z,5.60
2022-11-27T22:28:05.888Z,4.73
2022-11-27T22:30:32.879Z,5.47
2022-11-27T22:32:59.654Z,5.50
2022-11-27T22:35:26.888Z,4.70
2022-11-27T22:37:54.034Z,4.60
2022-11-27T22:40:22.264Z,4.83
2022-11-27T22:42:49.078Z,5.50
2022-11-27T22:45:15.882Z,5.00
2022-11-27T22:47:42.769Z,5.80
2022-11-27T22:50:09.681Z,4.97
2022-11-27T22:52:36.389Z,4.70
2022-11-27T22:55:03.591Z,4.50
2022-11-27T22:57:30.375Z,4.90
2022-11-27T22:59:57.080Z,4.90
2022-11-27T23:02:23.906Z,4.93
2022-11-27T23:04:50.689Z,4.70
2022-11-27T23:07:22.333Z,4.73
2022-11-27T23:09:51.643Z,4.30
2022-11-27T23:12:18.450Z,4.63
2022-11-27T23:14:45.231Z,5.10
2022-11-27T23:17:12.068Z,4.80
2022-11-27T23:19:38.802Z,5.60
2022-11-27T23:22:05.607Z,4.53
2022-11-27T23:24:32.460Z,4.80
2022-11-27T23:26:59.233Z,4.50
2022-11-27T23:29:26.010Z,5.20
2022-11-27T23:31:52.825Z,5.50
2022-11-27T23:34:19.633Z,5.23
2022-11-27T23:36:46.361Z,5.13
2022-11-27T23:39:14.224Z,5.80
2022-11-27T23:41:41.400Z,5.80
2022-11-27T23:44:08.299Z,5.70
2022-11-27T23:46:35.006Z,5.50
2022-11-27T23:49:01.838Z,5.27
2022-11-27T23:51:31.110Z,5.13
2022-11-27T23:53:59.113Z,5.53
2022-11-27T23:56:28.321Z,5.43
2022-11-27T23:58:55.996Z,5.90
